Time;durP1;ratioP1;P1;durP2;ratioP2;P2;SDS_P1;SDS_P2;PMS_P1;PMS_P2;Temp;Humidity;BMP_temperature;BMP_pressure;BME280_temperature;BME280_humidity;BME280_pressure;Samples;Min_cycle;Max_cycle;Signal;HPM_P1;HPM_P2
2021/06/01 00:01:46;;;;;;;7.55;2.63;;;;;;;;;;5078948;22;20386;-71
2021/06/01 00:04:12;;;;;;;7.32;2.45;;;;;;;;;;5034103;28;20407;-69
2021/06/01 00:06:37;;;;;;;3.58;2.35;;;;;;;;;;5030630;28;20559;-67
2021/06/01 00:09:04;;;;;;;5.25;2.35;;;;;;;;;;5035212;28;20100;-68
2021/06/01 00:11:29;;;;;;;3.90;2.38;;;;;;;;;;5045510;28;20620;-69
2021/06/01 00:13:55;;;;;;;4.00;2.20;;;;;;;;;;5053618;28;20028;-66
2021/06/01 00:16:20;;;;;;;3.97;2.00;;;;;;;;;;5054176;28;20263;-68
2021/06/01 00:18:45;;;;;;;4.57;1.88;;;;;;;;;;5057761;28;20016;-67
2021/06/01 00:21:11;;;;;;;5.63;2.53;;;;;;;;;;5057137;28;20040;-67
2021/06/01 00:23:37;;;;;;;3.95;2.03;;;;;;;;;;5056362;28;20540;-66
2021/06/01 00:26:03;;;;;;;3.67;2.00;;;;;;;;;;5054020;28;20403;-67
2021/06/01 00:28:28;;;;;;;5.32;1.85;;;;;;;;;;5057283;28;20059;-67
2021/06/01 00:30:54;;;;;;;4.57;2.15;;;;;;;;;;5055795;28;20107;-67
2021/06/01 00:33:19;;;;;;;9.95;2.53;;;;;;;;;;5055568;28;20039;-67
2021/06/01 00:35:44;;;;;;;3.43;2.20;;;;;;;;;;5058245;28;20025;-67
2021/06/01 00:38:09;;;;;;;4.03;2.13;;;;;;;;;;5052206;28;20280;-67
2021/06/01 00:40:34;;;;;;;3.87;1.73;;;;;;;;;;5056871;28;20291;-68
2021/06/01 00:43:00;;;;;;;3.88;1.92;;;;;;;;;;5057870;28;20859;-66
2021/06/01 00:45:26;;;;;;;3.72;2.08;;;;;;;;;;5053875;28;20095;-66
2021/06/01 00:47:52;;;;;;;4.20;2.45;;;;;;;;;;5056545;28;20017;-69
2021/06/01 00:50:20;;;;;;;4.57;2.10;;;;;;;;;;5059313;28;20025;-66
2021/06/01 00:52:45;;;;;;;9.52;2.53;;;;;;;;;;5052953;28;20099;-67
2021/06/01 00:55:10;;;;;;;6.20;2.30;;;;;;;;;;5050603;28;20107;-66
2021/06/01 00:57:35;;;;;;;5.43;1.92;;;;;;;;;;5050574;28;20325;-67
2021/06/01 01:00:02;;;;;;;4.75;2.10;;;;;;;;;;5052389;28;20421;-68
2021/06/01 01:02:29;;;;;;;5.20;2.13;;;;;;;;;;5055150;28;20017;-67
2021/06/01 01:04:54;;;;;;;2.90;1.98;;;;;;;;;;5050126;28;20039;-68
2021/06/01 01:07:33;;;;;;;3.40;1.98;;;;;;;;;;5055254;28;20576;-69
2021/06/01 01:09:58;;;;;;;2.80;1.75;;;;;;;;;;5062143;28;20017;-67
2021/06/01 01:12:28;;;;;;;6.22;2.00;;;;;;;;;;5056667;28;20032;-68
2021/06/01 01:14:55;;;;;;;6.20;2.22;;;;;;;;;;5052411;28;20029;-67
2021/06/01 01:17:22;;;;;;;4.68;2.53;;;;;;;;;;5054732;28;20037;-67
2021/06/01 01:20:07;;;;;;;3.78;2.20;;;;;;;;;;5057243;28;20440;-68
2021/06/01 01:22:33;;;;;;;7.97;3.00;;;;;;;;;;5054113;28;20021;-66
2021/06/01 01:24:58;;;;;;;6.55;2.20;;;;;;;;;;5053801;28;20028;-66
2021/06/01 01:27:45;;;;;;;4.32;2.25;;;;;;;;;;5057264;28;20028;-65
2021/06/01 01:30:12;;;;;;;3.75;2.20;;;;;;;;;;5054115;28;20643;-67
2021/06/01 01:32:46;;;;;;;6.05;2.63;;;;;;;;;;5051515;28;20664;-66
2021/06/01 01:35:13;;;;;;;4.18;1.98;;;;;;;;;;5050628;28;20028;-67
2021/06/01 01:37:40;;;;;;;3.30;1.90;;;;;;;;;;5053882;28;20497;-67
2021/06/01 01:40:08;;;;;;;7.13;2.50;;;;;;;;;;5050349;28;20020;-67
2021/06/01 01:42:42;;;;;;;2.88;1.88;;;;;;;;;;5055182;28;20059;-67
2021/06/01 01:45:20;;;;;;;3.88;1.92;;;;;;;;;;5055614;28;20043;-67
2021/06/01 01:50:17;;;;;;;5.00;2.15;;;;;;;;;;5055787;28;20043;-67
2021/06/01 01:52:43;;;;;;;5.20;2.08;;;;;;;;;;5051274;28;20028;-67
2021/06/01 01:55:09;;;;;;;4.15;2.33;;;;;;;;;;5059023;28;20055;-67
2021/06/01 01:57:35;;;;;;;3.75;2.35;;;;;;;;;;5054303;28;20013;-67
2021/06/01 02:00:05;;;;;;;7.47;2.00;;;;;;;;;;5054181;28;20044;-66
2021/06/01 02:02:30;;;;;;;4.38;2.25;;;;;;;;;;5044095;28;20059;-67
2021/06/01 02:04:55;;;;;;;3.13;2.13;;;;;;;;;;5045680;28;20052;-66
2021/06/01 02:07:21;;;;;;;4.63;2.00;;;;;;;;;;5058181;28;20025;-65
2021/06/01 02:09:46;;;;;;;6.00;2.58;;;;;;;;;;5056256;28;20108;-67
2021/06/01 02:12:11;;;;;;;7.23;1.97;;;;;;;;;;5063750;28;20016;-66
2021/06/01 02:14:36;;;;;;;11.77;2.30;;;;;;;;;;5047220;28;21559;-67
2021/06/01 02:17:02;;;;;;;4.68;2.30;;;;;;;;;;5054888;28;20021;-67
2021/06/01 02:19:27;;;;;;;3.50;2.15;;;;;;;;;;5059903;28;20152;-67
2021/06/01 02:22:04;;;;;;;5.15;2.20;;;;;;;;;;5055098;28;20041;-67
2021/06/01 02:24:33;;;;;;;3.75;1.83;;;;;;;;;;5062290;28;20036;-67
2021/06/01 02:27:21;;;;;;;7.53;2.03;;;;;;;;;;5055684;28;20433;-67
2021/06/01 02:29:49;;;;;;;5.38;2.80;;;;;;;;;;5054667;28;20103;-67
2021/06/01 02:32:17;;;;;;;4.55;2.35;;;;;;;;;;5057275;28;20151;-65
2021/06/01 02:34:43;;;;;;;5.32;2.00;;;;;;;;;;5054383;28;20659;-67
2021/06/01 02:37:08;;;;;;;3.42;1.75;;;;;;;;;;5058183;28;20020;-67
2021/06/01 02:39:34;;;;;;;9.88;2.03;;;;;;;;;;5058869;28;20017;-67
2021/06/01 02:42:01;;;;;;;4.45;2.20;;;;;;;;;;5058863;28;20029;-66
2021/06/01 02:44:26;;;;;;;3.90;2.53;;;;;;;;;;5060250;28;20490;-67
2021/06/01 02:46:51;;;;;;;8.73;2.05;;;;;;;;;;5052875;28;20037;-67
2021/06/01 02:49:17;;;;;;;3.63;2.25;;;;;;;;;;5056024;28;20036;-66
2021/06/01 02:51:42;;;;;;;2.90;1.98;;;;;;;;;;5055119;28;21306;-66
2021/06/01 02:54:08;;;;;;;4.93;1.95;;;;;;;;;;5060463;28;20031;-67
2021/06/01 02:56:33;;;;;;;7.82;2.50;;;;;;;;;;5055648;28;20557;-66
2021/06/01 02:59:01;;;;;;;4.10;2.50;;;;;;;;;;5054265;28;20027;-66
2021/06/01 03:01:27;;;;;;;3.65;2.25;;;;;;;;;;5050985;28;20032;-66
2021/06/01 03:03:53;;;;;;;3.65;2.28;;;;;;;;;;5058847;28;20013;-67
2021/06/01 03:06:19;;;;;;;4.82;2.53;;;;;;;;;;5053378;28;20025;-66
2021/06/01 03:08:45;;;;;;;5.93;2.60;;;;;;;;;;5055713;28;20051;-67
2021/06/01 03:11:11;;;;;;;11.35;3.88;;;;;;;;;;5059535;28;20486;-66
2021/06/01 03:13:37;;;;;;;3.03;2.25;;;;;;;;;;5060304;28;20024;-66
2021/06/01 03:16:02;;;;;;;6.18;2.35;;;;;;;;;;5055288;28;20021;-68
2021/06/01 03:18:28;;;;;;;4.50;2.13;;;;;;;;;;5057239;28;20467;-67
2021/06/01 03:20:53;;;;;;;7.85;2.30;;;;;;;;;;5052354;28;20120;-66
2021/06/01 03:23:19;;;;;;;7.15;3.15;;;;;;;;;;5058250;28;20025;-64
2021/06/01 03:25:44;;;;;;;5.68;2.47;;;;;;;;;;5058377;28;20602;-67
2021/06/01 03:28:10;;;;;;;5.85;2.13;;;;;;;;;;5057880;28;20028;-65
2021/06/01 03:30:36;;;;;;;14.43;2.78;;;;;;;;;;5055224;28;20013;-66
2021/06/01 03:33:01;;;;;;;4.82;2.58;;;;;;;;;;5058569;28;20016;-66
2021/06/01 03:35:26;;;;;;;6.75;2.92;;;;;;;;;;5053094;28;20032;-66
2021/06/01 03:37:53;;;;;;;4.05;2.33;;;;;;;;;;5056672;28;20750;-66
2021/06/01 03:40:18;;;;;;;7.10;2.40;;;;;;;;;;5056758;28;20025;-66
2021/06/01 03:42:44;;;;;;;7.72;2.53;;;;;;;;;;5058351;28;20526;-66
2021/06/01 03:45:10;;;;;;;4.22;2.50;;;;;;;;;;5059712;28;20114;-66
2021/06/01 03:47:35;;;;;;;8.40;2.30;;;;;;;;;;5051979;28;20020;-67
2021/06/01 03:50:00;;;;;;;6.37;2.80;;;;;;;;;;5059444;28;20095;-67
2021/06/01 03:52:25;;;;;;;4.17;2.77;;;;;;;;;;5059197;28;20259;-67
2021/06/01 03:54:50;;;;;;;5.75;2.70;;;;;;;;;;5054351;28;20817;-68
2021/06/01 03:57:16;;;;;;;8.70;2.65;;;;;;;;;;5052937;28;20020;-67
2021/06/01 03:59:41;;;;;;;6.03;2.67;;;;;;;;;;5053194;28;20074;-68
2021/06/01 04:02:07;;;;;;;5.07;2.63;;;;;;;;;;5056580;28;20633;-65
2021/06/01 04:04:32;;;;;;;8.35;2.92;;;;;;;;;;5055316;28;20009;-66
2021/06/01 04:06:58;;;;;;;4.65;2.53;;;;;;;;;;5054829;28;20071;-65
2021/06/01 04:09:23;;;;;;;5.50;3.08;;;;;;;;;;5052988;28;20039;-66
2021/06/01 04:11:48;;;;;;;9.38;3.22;;;;;;;;;;5055050;28;20094;-67
2021/06/01 04:14:16;;;;;;;6.03;3.20;;;;;;;;;;5054729;28;20012;-65
2021/06/01 04:16:41;;;;;;;10.07;3.15;;;;;;;;;;5058360;28;20270;-67
2021/06/01 04:19:06;;;;;;;6.87;2.70;;;;;;;;;;5052325;28;20100;-68
2021/06/01 04:21:31;;;;;;;8.00;3.03;;;;;;;;;;5052530;28;20625;-66
2021/06/01 04:23:56;;;;;;;5.88;2.58;;;;;;;;;;5053119;28;20368;-68
2021/06/01 04:26:22;;;;;;;5.60;3.10;;;;;;;;;;5051760;28;20017;-69
2021/06/01 04:28:47;;;;;;;7.80;3.23;;;;;;;;;;5032092;28;20267;-66
2021/06/01 04:31:12;;;;;;;7.20;2.92;;;;;;;;;;5058007;28;20350;-68
2021/06/01 04:33:37;;;;;;;5.60;3.23;;;;;;;;;;5056453;28;20021;-68
2021/06/01 04:36:03;;;;;;;10.48;3.60;;;;;;;;;;5054026;28;20321;-65
2021/06/01 04:38:28;;;;;;;8.77;3.72;;;;;;;;;;5054725;28;20047;-67
2021/06/01 04:40:53;;;;;;;6.27;2.93;;;;;;;;;;5052891;28;20391;-69
2021/06/01 04:43:18;;;;;;;11.60;3.23;;;;;;;;;;5054361;28;20348;-70
2021/06/01 04:45:44;;;;;;;14.00;3.00;;;;;;;;;;5051773;28;20622;-65
2021/06/01 04:48:09;;;;;;;5.65;2.75;;;;;;;;;;5051691;28;20025;-67
2021/06/01 04:50:34;;;;;;;5.45;3.10;;;;;;;;;;5048366;28;20031;-66
2021/06/01 04:52:59;;;;;;;5.07;2.67;;;;;;;;;;5051995;28;20024;-66
2021/06/01 04:55:25;;;;;;;9.83;3.30;;;;;;;;;;5052476;28;20267;-69
2021/06/01 04:57:50;;;;;;;7.15;2.53;;;;;;;;;;5050969;28;20279;-66
2021/06/01 05:00:15;;;;;;;5.03;3.17;;;;;;;;;;5052166;28;20044;-66
2021/06/01 05:02:41;;;;;;;5.45;2.80;;;;;;;;;;5053949;28;20372;-66
2021/06/01 05:05:06;;;;;;;7.22;2.90;;;;;;;;;;5052632;28;20058;-66
2021/06/01 05:07:31;;;;;;;4.80;3.05;;;;;;;;;;5053812;28;20021;-66
2021/06/01 05:10:00;;;;;;;5.68;2.90;;;;;;;;;;5050783;28;20602;-66
2021/06/01 05:12:26;;;;;;;7.57;2.92;;;;;;;;;;5055615;28;20019;-66
2021/06/01 05:14:51;;;;;;;6.00;3.05;;;;;;;;;;5049739;28;20021;-66
2021/06/01 05:17:16;;;;;;;8.52;2.95;;;;;;;;;;5042614;28;20127;-66
2021/06/01 05:19:42;;;;;;;8.43;3.33;;;;;;;;;;5046558;28;20328;-66
2021/06/01 05:22:07;;;;;;;6.63;3.20;;;;;;;;;;5054042;28;20672;-66
2021/06/01 05:24:32;;;;;;;7.90;3.27;;;;;;;;;;5052839;28;20263;-66
2021/06/01 05:26:57;;;;;;;5.03;2.67;;;;;;;;;;5049834;28;20267;-66
2021/06/01 05:29:22;;;;;;;7.30;2.92;;;;;;;;;;5054550;28;20255;-66
2021/06/01 05:31:55;;;;;;;10.03;3.80;;;;;;;;;;5055238;28;20087;-67
2021/06/01 05:34:22;;;;;;;10.38;3.60;;;;;;;;;;5052593;28;20298;-68
2021/06/01 05:36:48;;;;;;;5.85;2.90;;;;;;;;;;5054696;28;20410;-66
2021/06/01 05:39:14;;;;;;;10.07;3.45;;;;;;;;;;5049677;28;20031;-67
2021/06/01 05:41:39;;;;;;;6.50;2.95;;;;;;;;;;5051121;28;20115;-66
2021/06/01 05:44:04;;;;;;;7.10;2.85;;;;;;;;;;5051452;28;20104;-65
2021/06/01 05:46:30;;;;;;;5.18;3.13;;;;;;;;;;5047079;28;20488;-67
2021/06/01 05:48:55;;;;;;;6.82;2.97;;;;;;;;;;5045736;28;20025;-68
2021/06/01 05:51:25;;;;;;;10.37;3.20;;;;;;;;;;5048201;28;20378;-68
2021/06/01 05:53:52;;;;;;;5.15;2.92;;;;;;;;;;5051061;28;20271;-67
2021/06/01 05:56:17;;;;;;;4.93;3.00;;;;;;;;;;5054036;28;20615;-66
2021/06/01 05:58:42;;;;;;;6.87;2.97;;;;;;;;;;5058499;28;20036;-68
2021/06/01 06:01:07;;;;;;;7.00;3.03;;;;;;;;;;5054552;28;20275;-67
2021/06/01 06:03:32;;;;;;;6.63;2.60;;;;;;;;;;5069783;23;20052;-64
2021/06/01 06:05:58;;;;;;;5.27;2.83;;;;;;;;;;5053896;28;20259;-63
2021/06/01 06:08:24;;;;;;;5.80;2.45;;;;;;;;;;5051070;28;20339;-63
2021/06/01 06:10:49;;;;;;;5.93;2.90;;;;;;;;;;5056161;28;20092;-64
2021/06/01 06:13:15;;;;;;;6.78;2.92;;;;;;;;;;5050975;28;20028;-64
2021/06/01 06:15:40;;;;;;;5.28;3.03;;;;;;;;;;5025395;28;20487;-66
2021/06/01 06:18:06;;;;;;;6.30;2.92;;;;;;;;;;5042689;28;20501;-64
2021/06/01 06:20:32;;;;;;;3.22;2.60;;;;;;;;;;5047375;28;20028;-63
2021/06/01 06:22:58;;;;;;;6.43;2.92;;;;;;;;;;5046461;28;20559;-65
2021/06/01 06:25:23;;;;;;;3.78;2.47;;;;;;;;;;5049345;28;20025;-62
2021/06/01 06:27:49;;;;;;;7.13;2.47;;;;;;;;;;5030908;28;20051;-64
2021/06/01 06:30:14;;;;;;;12.25;2.95;;;;;;;;;;5040945;28;20021;-64
2021/06/01 06:32:39;;;;;;;9.00;3.20;;;;;;;;;;5049536;28;20025;-64
2021/06/01 06:35:05;;;;;;;5.85;2.28;;;;;;;;;;5049554;28;20103;-64
2021/06/01 06:37:31;;;;;;;6.85;3.35;;;;;;;;;;5041865;28;20482;-62
2021/06/01 06:39:56;;;;;;;3.42;2.15;;;;;;;;;;5040252;28;20029;-64
2021/06/01 06:42:21;;;;;;;6.88;2.33;;;;;;;;;;5048659;28;20032;-64
2021/06/01 06:44:50;;;;;;;7.05;2.72;;;;;;;;;;5048062;28;20009;-64
2021/06/01 06:47:28;;;;;;;6.03;2.88;;;;;;;;;;5047965;28;20352;-62
2021/06/01 06:49:55;;;;;;;6.72;2.75;;;;;;;;;;5048735;28;20045;-64
2021/06/01 06:52:20;;;;;;;5.50;3.00;;;;;;;;;;5050729;28;20048;-64
2021/06/01 06:54:46;;;;;;;7.13;3.00;;;;;;;;;;5052669;28;20021;-62
2021/06/01 06:57:11;;;;;;;8.32;3.38;;;;;;;;;;5052332;28;20025;-64
2021/06/01 06:59:36;;;;;;;5.50;2.67;;;;;;;;;;5052818;28;20039;-64
2021/06/01 07:02:02;;;;;;;5.10;3.10;;;;;;;;;;5052411;28;20021;-64
2021/06/01 07:04:27;;;;;;;9.88;4.30;;;;;;;;;;5052601;28;20013;-64
2021/06/01 07:06:53;;;;;;;3.80;2.45;;;;;;;;;;5052525;28;20013;-64
2021/06/01 07:09:18;;;;;;;7.57;2.45;;;;;;;;;;5051500;28;20449;-62
2021/06/01 07:11:43;;;;;;;3.00;2.33;;;;;;;;;;5052633;28;20028;-63
2021/06/01 07:14:08;;;;;;;11.60;2.87;;;;;;;;;;5052632;28;20270;-60
2021/06/01 07:16:33;;;;;;;7.10;2.30;;;;;;;;;;5052008;28;20259;-63
2021/06/01 07:18:59;;;;;;;8.07;2.03;;;;;;;;;;5051866;28;20814;-64
2021/06/01 07:21:24;;;;;;;5.38;2.30;;;;;;;;;;5049079;28;20047;-64
2021/06/01 07:23:49;;;;;;;3.37;1.80;;;;;;;;;;5034834;28;20101;-63
2021/06/01 07:26:14;;;;;;;10.00;1.37;;;;;;;;;;5046744;28;20260;-63
2021/06/01 07:28:39;;;;;;;13.47;2.67;;;;;;;;;;5052385;28;20566;-64
2021/06/01 07:31:05;;;;;;;3.83;1.85;;;;;;;;;;5052734;28;20430;-62
2021/06/01 07:33:31;;;;;;;7.43;2.03;;;;;;;;;;5052245;28;20021;-63
2021/06/01 07:35:56;;;;;;;2.65;1.80;;;;;;;;;;5052277;28;20029;-64
2021/06/01 07:38:21;;;;;;;4.77;2.03;;;;;;;;;;5052643;28;20074;-64
2021/06/01 07:40:47;;;;;;;11.38;2.60;;;;;;;;;;5050207;28;20270;-65
2021/06/01 07:43:12;;;;;;;10.97;2.90;;;;;;;;;;5036185;28;20108;-64
2021/06/01 07:45:37;;;;;;;5.15;2.30;;;;;;;;;;5050585;28;20316;-65
2021/06/01 07:48:03;;;;;;;7.13;2.30;;;;;;;;;;5051829;28;20029;-66
2021/06/01 07:50:28;;;;;;;3.17;2.20;;;;;;;;;;5051502;28;20264;-65
2021/06/01 07:52:54;;;;;;;2.80;1.85;;;;;;;;;;5050594;28;20437;-65
2021/06/01 07:55:19;;;;;;;3.35;2.25;;;;;;;;;;5050836;28;20047;-65
2021/06/01 07:57:44;;;;;;;3.57;1.80;;;;;;;;;;5051392;28;20032;-65
2021/06/01 08:00:10;;;;;;;2.03;1.53;;;;;;;;;;5050653;28;20275;-65
2021/06/01 08:02:35;;;;;;;6.22;1.90;;;;;;;;;;5051189;28;20298;-65
2021/06/01 08:05:01;;;;;;;2.97;1.85;;;;;;;;;;5051197;28;20028;-65
2021/06/01 08:07:26;;;;;;;5.97;1.92;;;;;;;;;;5051231;28;20025;-64
2021/06/01 08:09:51;;;;;;;8.80;2.10;;;;;;;;;;5051358;28;20029;-64
2021/06/01 08:12:16;;;;;;;5.13;2.00;;;;;;;;;;5051557;28;20694;-64
2021/06/01 08:14:42;;;;;;;2.13;1.40;;;;;;;;;;5051068;28;20025;-65
2021/06/01 08:17:07;;;;;;;5.25;1.85;;;;;;;;;;5049608;28;20259;-64
2021/06/01 08:19:39;;;;;;;3.70;2.10;;;;;;;;;;5050475;28;20021;-63
2021/06/01 08:24:48;;;;;;;5.50;2.65;;;;;;;;;;5031456;28;20022;-64
2021/06/01 08:27:13;;;;;;;7.93;2.05;;;;;;;;;;5045080;28;20070;-63
2021/06/01 08:29:38;;;;;;;5.97;2.37;;;;;;;;;;5051123;28;20076;-64
2021/06/01 08:32:04;;;;;;;3.40;1.80;;;;;;;;;;5050280;28;20804;-64
2021/06/01 08:34:29;;;;;;;8.05;3.22;;;;;;;;;;5051248;28;20288;-65
2021/06/01 08:36:54;;;;;;;3.75;2.30;;;;;;;;;;5050387;28;20475;-66
2021/06/01 08:39:24;;;;;;;16.30;4.65;;;;;;;;;;5050846;28;20025;-65
2021/06/01 08:41:49;;;;;;;4.00;2.10;;;;;;;;;;5050749;28;20028;-64
2021/06/01 08:44:16;;;;;;;7.70;2.87;;;;;;;;;;5051167;28;20086;-65
2021/06/01 08:46:41;;;;;;;3.85;1.23;;;;;;;;;;5049930;28;20455;-65
2021/06/01 08:49:07;;;;;;;2.90;2.10;;;;;;;;;;5051065;28;20074;-66
2021/06/01 08:51:32;;;;;;;1.33;1.17;;;;;;;;;;5045096;28;20012;-65
2021/06/01 08:53:58;;;;;;;4.83;1.70;;;;;;;;;;5051020;28;20497;-64
2021/06/01 08:56:24;;;;;;;3.38;1.85;;;;;;;;;;5049887;28;20279;-64
2021/06/01 08:58:49;;;;;;;2.33;1.42;;;;;;;;;;5050725;28;20100;-66
2021/06/01 09:01:15;;;;;;;7.93;2.15;;;;;;;;;;5050556;28;20035;-65
2021/06/01 09:03:46;;;;;;;4.65;1.77;;;;;;;;;;5050044;28;20126;-65
2021/06/01 09:06:25;;;;;;;5.13;1.10;;;;;;;;;;5050330;28;20486;-65
2021/06/01 09:14:19;;;;;;;7.65;1.65;;;;;;;;;;5049948;28;20049;-65
2021/06/01 09:22:10;;;;;;;1.77;1.45;;;;;;;;;;5047366;28;20049;-65
2021/06/01 09:24:35;;;;;;;1.95;1.15;;;;;;;;;;5049053;28;20052;-66
2021/06/01 09:27:04;;;;;;;5.17;1.60;;;;;;;;;;5050061;28;20141;-65
2021/06/01 09:29:30;;;;;;;2.60;1.45;;;;;;;;;;5049108;28;20033;-65
2021/06/01 09:32:12;;;;;;;4.70;1.70;;;;;;;;;;5048278;28;20036;-65
2021/06/01 09:34:38;;;;;;;6.97;1.42;;;;;;;;;;5032931;28;20356;-64
2021/06/01 09:37:22;;;;;;;14.90;2.20;;;;;;;;;;5049619;28;20009;-65
2021/06/01 09:40:06;;;;;;;13.70;1.98;;;;;;;;;;5035758;28;20022;-64
2021/06/01 09:42:32;;;;;;;5.63;2.33;;;;;;;;;;5049398;28;20033;-65
2021/06/01 09:45:00;;;;;;;13.05;1.80;;;;;;;;;;5040746;28;20489;-65
2021/06/01 09:47:39;;;;;;;10.48;1.98;;;;;;;;;;5049805;28;20036;-65
2021/06/01 09:50:13;;;;;;;4.18;1.88;;;;;;;;;;5050092;28;20029;-66
2021/06/01 09:52:45;;;;;;;2.47;1.55;;;;;;;;;;5049785;28;20730;-66
2021/06/01 09:55:14;;;;;;;9.70;2.17;;;;;;;;;;5049655;28;20099;-65
2021/06/01 09:57:42;;;;;;;2.05;1.23;;;;;;;;;;5049791;28;20168;-66
2021/06/01 10:00:07;;;;;;;2.25;1.33;;;;;;;;;;5038316;28;20021;-65
2021/06/01 10:02:33;;;;;;;4.35;1.38;;;;;;;;;;5049598;28;20028;-65
2021/06/01 10:05:09;;;;;;;4.90;1.88;;;;;;;;;;5049340;28;20040;-65
2021/06/01 10:07:34;;;;;;;4.15;1.75;;;;;;;;;;5044528;28;20017;-66
2021/06/01 10:09:59;;;;;;;2.33;1.52;;;;;;;;;;5049482;28;20070;-66
2021/06/01 10:12:24;;;;;;;1.77;1.00;;;;;;;;;;5049213;28;20113;-64
2021/06/01 10:14:49;;;;;;;7.13;2.07;;;;;;;;;;5047352;28;20023;-65
2021/06/01 10:17:15;;;;;;;4.90;1.67;;;;;;;;;;5041244;28;20280;-65
2021/06/01 10:19:40;;;;;;;6.75;2.63;;;;;;;;;;5045562;28;20259;-65
2021/06/01 10:22:06;;;;;;;2.00;1.65;;;;;;;;;;5048341;28;20111;-65
2021/06/01 10:24:31;;;;;;;0.80;0.80;;;;;;;;;;5049626;28;20059;-65
2021/06/01 10:26:58;;;;;;;6.00;1.52;;;;;;;;;;5050615;28;20029;-65
2021/06/01 10:29:23;;;;;;;1.27;0.95;;;;;;;;;;5053854;28;20025;-64
2021/06/01 10:31:48;;;;;;;1.27;0.87;;;;;;;;;;5051593;28;20021;-67
2021/06/01 10:34:16;;;;;;;4.50;1.25;;;;;;;;;;5053432;28;20260;-64
2021/06/01 10:48:43;;;;;;;3.50;1.80;;;;;;;;;;5053373;28;20036;-66
2021/06/01 10:50:41;;;;;;;8.27;2.67;;;;;;;;;;5052407;28;20105;-65
2021/06/01 10:53:20;;;;;;;4.47;1.77;;;;;;;;;;5052910;28;20024;-66
2021/06/01 10:56:01;;;;;;;2.75;0.98;;;;;;;;;;5052636;28;20382;-66
2021/06/01 10:58:49;;;;;;;2.45;1.73;;;;;;;;;;5052803;28;20108;-65
2021/06/01 11:04:09;;;;;;;3.67;1.83;;;;;;;;;;5051980;28;20422;-65
2021/06/01 11:06:47;;;;;;;2.78;1.60;;;;;;;;;;5052461;28;20017;-66
2021/06/01 11:09:44;;;;;;;4.47;1.13;;;;;;;;;;5052788;28;20021;-66
2021/06/01 11:12:17;;;;;;;1.95;1.10;;;;;;;;;;5032816;28;20503;-66
2021/06/01 11:14:43;;;;;;;5.60;2.08;;;;;;;;;;5052442;28;20104;-65
2021/06/01 11:17:09;;;;;;;2.28;1.27;;;;;;;;;;5052493;28;20056;-66
2021/06/01 11:19:56;;;;;;;2.05;1.40;;;;;;;;;;5052476;28;20021;-64
2021/06/01 11:22:30;;;;;;;5.50;1.85;;;;;;;;;;5050558;28;20490;-66
2021/06/01 11:33:26;;;;;;;3.35;1.20;;;;;;;;;;5045369;28;20028;-66
2021/06/01 11:35:58;;;;;;;1.65;1.20;;;;;;;;;;5052890;28;20013;-64
2021/06/01 11:38:28;;;;;;;2.13;1.27;;;;;;;;;;5051176;28;20051;-65
2021/06/01 11:43:30;;;;;;;3.13;1.83;;;;;;;;;;5051494;28;20017;-67
2021/06/01 11:46:08;;;;;;;2.80;1.67;;;;;;;;;;5052036;28;20520;-66
2021/06/01 11:51:18;;;;;;;2.20;1.48;;;;;;;;;;5052302;28;20364;-65
2021/06/01 11:54:03;;;;;;;4.18;1.58;;;;;;;;;;5051705;28;20025;-66
2021/06/01 11:57:23;;;;;;;5.72;1.80;;;;;;;;;;5048325;28;20028;-64
2021/06/01 12:18:22;;;;;;;1.85;1.30;;;;;;;;;;5051022;28;20039;-65
2021/06/01 12:20:48;;;;;;;3.53;1.02;;;;;;;;;;5050572;28;20021;-64
2021/06/01 12:23:28;;;;;;;1.98;1.15;;;;;;;;;;5051349;28;20017;-65
2021/06/01 12:26:31;;;;;;;6.07;2.03;;;;;;;;;;5049984;28;20074;-64
2021/06/01 12:32:08;;;;;;;2.92;1.70;;;;;;;;;;5049888;28;20429;-65
2021/06/01 12:42:54;;;;;;;1.90;1.25;;;;;;;;;;5050437;28;20434;-65
2021/06/01 12:45:44;;;;;;;4.38;1.40;;;;;;;;;;5050983;28;20032;-65
2021/06/01 13:13:50;;;;;;;3.13;1.70;;;;;;;;;;5048530;28;20367;-66
2021/06/01 13:21:41;;;;;;;2.85;1.83;;;;;;;;;;5043177;28;20083;-66
2021/06/01 13:36:19;;;;;;;3.50;1.75;;;;;;;;;;5049789;28;20028;-64
2021/06/01 13:38:40;;;;;;;2.65;1.70;;;;;;;;;;4988822;28;20061;-64
2021/06/01 13:46:38;;;;;;;8.75;1.65;;;;;;;;;;5049582;28;20124;-63
2021/06/01 13:52:15;;;;;;;3.35;1.42;;;;;;;;;;5039626;28;20028;-66
2021/06/01 14:05:42;;;;;;;1.95;1.40;;;;;;;;;;4972394;28;20034;-63
2021/06/01 14:21:54;;;;;;;2.50;1.67;;;;;;;;;;5053482;28;20418;-63
2021/06/01 14:29:54;;;;;;;5.38;2.10;;;;;;;;;;5033770;28;20491;-65
2021/06/01 16:31:46;;;;;;;2.65;1.40;;;;;;;;;;5051594;28;20040;-64
2021/06/01 17:06:58;;;;;;;3.80;1.48;;;;;;;;;;5050528;28;20036;-64
2021/06/01 17:11:55;;;;;;;5.80;1.60;;;;;;;;;;5047465;28;20015;-66
2021/06/01 17:14:26;;;;;;;3.85;1.95;;;;;;;;;;5032082;28;20450;-64
2021/06/01 17:17:02;;;;;;;3.40;2.10;;;;;;;;;;5047803;28;20078;-64
2021/06/01 17:19:57;;;;;;;4.60;2.08;;;;;;;;;;5041786;28;20028;-66
2021/06/01 17:22:50;;;;;;;2.58;1.52;;;;;;;;;;5033468;28;20028;-64
2021/06/01 17:30:58;;;;;;;2.28;1.73;;;;;;;;;;5050081;28;20079;-64
2021/06/01 17:36:10;;;;;;;3.20;1.75;;;;;;;;;;5037558;28;20163;-64
2021/06/01 17:38:35;;;;;;;3.15;1.60;;;;;;;;;;5049818;28;20020;-65
2021/06/01 17:41:04;;;;;;;3.22;1.60;;;;;;;;;;5050094;28;20403;-65
2021/06/01 17:43:34;;;;;;;2.65;1.50;;;;;;;;;;5049852;28;20023;-65
2021/06/01 17:46:00;;;;;;;3.30;1.88;;;;;;;;;;5049987;28;20044;-63
2021/06/01 17:48:32;;;;;;;3.53;1.73;;;;;;;;;;5031034;28;20033;-65
2021/06/01 17:50:58;;;;;;;4.55;1.75;;;;;;;;;;5050080;28;20552;-64
2021/06/01 17:53:24;;;;;;;5.82;2.83;;;;;;;;;;5049578;28;20060;-64
2021/06/01 17:55:53;;;;;;;3.53;1.60;;;;;;;;;;5049885;28;20029;-64
2021/06/01 17:58:21;;;;;;;2.45;1.70;;;;;;;;;;5049511;28;20108;-64
2021/06/01 18:00:47;;;;;;;3.70;1.92;;;;;;;;;;5049466;28;20159;-65
2021/06/01 18:03:13;;;;;;;4.30;1.73;;;;;;;;;;5055472;23;20100;-89
2021/06/01 18:05:42;;;;;;;25.58;2.28;;;;;;;;;;5005383;28;20026;-88
2021/06/01 18:08:17;;;;;;;3.03;1.60;;;;;;;;;;5007304;28;20463;-88
2021/06/01 19:00:42;;;;;;;4.55;1.83;;;;;;;;;;5025809;28;20068;-88
2021/06/01 19:24:59;;;;;;;3.72;2.13;;;;;;;;;;5037837;28;20021;-88
2021/06/01 19:51:55;;;;;;;4.72;2.00;;;;;;;;;;5015501;28;20010;-89
2021/06/01 19:54:27;;;;;;;5.75;2.28;;;;;;;;;;5020873;28;20033;-89
2021/06/01 19:56:53;;;;;;;7.70;2.20;;;;;;;;;;5013087;28;20037;-88
2021/06/01 19:59:19;;;;;;;3.72;2.67;;;;;;;;;;5015407;28;20072;-88
2021/06/01 20:01:46;;;;;;;4.88;2.25;;;;;;;;;;4997719;28;20495;-88
2021/06/01 20:04:11;;;;;;;3.85;2.13;;;;;;;;;;5010863;28;20032;-88
2021/06/01 20:06:39;;;;;;;8.73;2.57;;;;;;;;;;5026760;28;20017;-88
2021/06/01 20:09:08;;;;;;;4.72;2.50;;;;;;;;;;5015925;28;20257;-88
2021/06/01 20:11:36;;;;;;;5.95;2.63;;;;;;;;;;5032763;28;20018;-89
2021/06/01 20:14:02;;;;;;;3.53;2.30;;;;;;;;;;5014752;28;20403;-89
2021/06/01 20:16:28;;;;;;;2.70;2.20;;;;;;;;;;5011630;28;20022;-88
2021/06/01 20:18:55;;;;;;;6.90;2.92;;;;;;;;;;5012979;28;20388;-89
2021/06/01 20:21:22;;;;;;;3.75;2.63;;;;;;;;;;5015221;28;20021;-88
2021/06/01 20:23:48;;;;;;;6.82;3.70;;;;;;;;;;5014463;28;20021;-89
2021/06/01 20:26:15;;;;;;;4.93;2.70;;;;;;;;;;5015664;28;20045;-89
2021/06/01 20:28:51;;;;;;;15.05;2.50;;;;;;;;;;5014920;28;20806;-89
2021/06/01 20:31:32;;;;;;;5.72;2.63;;;;;;;;;;5002193;28;20742;-89
2021/06/01 20:33:58;;;;;;;6.22;2.80;;;;;;;;;;5029138;28;20029;-89
2021/06/01 20:36:23;;;;;;;7.15;2.53;;;;;;;;;;5030914;28;20024;-89
2021/06/01 20:38:50;;;;;;;8.60;2.63;;;;;;;;;;5014187;28;20112;-89
2021/06/01 20:41:16;;;;;;;3.85;2.35;;;;;;;;;;5016371;28;20032;-89
2021/06/01 20:43:43;;;;;;;3.88;2.42;;;;;;;;;;5014707;28;20025;-90
2021/06/01 20:46:09;;;;;;;3.75;2.25;;;;;;;;;;5014357;28;20470;-89
2021/06/01 20:48:35;;;;;;;5.40;2.75;;;;;;;;;;5013630;28;20108;-88
2021/06/01 20:51:00;;;;;;;5.07;3.03;;;;;;;;;;5015471;28;20095;-88
2021/06/01 20:53:26;;;;;;;6.50;3.40;;;;;;;;;;5014701;28;20021;-89
2021/06/01 20:55:52;;;;;;;6.93;2.85;;;;;;;;;;5014919;28;20033;-89
2021/06/01 20:58:19;;;;;;;5.45;2.70;;;;;;;;;;5013866;28;20075;-88
2021/06/01 21:00:45;;;;;;;6.25;2.90;;;;;;;;;;5013448;28;20068;-89
2021/06/01 21:03:10;;;;;;;7.93;2.70;;;;;;;;;;5016672;28;20045;-89
2021/06/01 21:05:37;;;;;;;6.72;2.63;;;;;;;;;;5013214;28;20025;-90
2021/06/01 21:08:03;;;;;;;7.25;2.72;;;;;;;;;;5013111;28;20541;-89
2021/06/01 21:10:28;;;;;;;6.18;3.65;;;;;;;;;;5012936;28;20464;-89
2021/06/01 21:12:54;;;;;;;6.05;2.88;;;;;;;;;;5013245;28;20044;-88
2021/06/01 21:15:20;;;;;;;5.00;2.55;;;;;;;;;;5029416;28;20197;-88
2021/06/01 21:17:46;;;;;;;6.45;3.03;;;;;;;;;;5030854;28;20033;-88
2021/06/01 21:20:14;;;;;;;13.57;3.30;;;;;;;;;;5030994;28;20036;-88
2021/06/01 21:22:40;;;;;;;3.03;2.50;;;;;;;;;;5015178;28;20037;-89
2021/06/01 21:25:10;;;;;;;6.75;3.22;;;;;;;;;;5016366;28;20019;-88
2021/06/01 21:27:35;;;;;;;7.10;2.97;;;;;;;;;;5017868;28;20108;-89
2021/06/01 21:30:01;;;;;;;6.70;2.70;;;;;;;;;;5032883;28;20103;-89
2021/06/01 21:32:52;;;;;;;5.15;2.63;;;;;;;;;;5034035;28;20711;-90
2021/06/01 21:35:18;;;;;;;15.00;4.07;;;;;;;;;;5012387;28;20522;-88
2021/06/01 21:37:52;;;;;;;6.68;2.80;;;;;;;;;;5013506;28;20037;-89
2021/06/01 21:40:19;;;;;;;5.70;2.75;;;;;;;;;;5015513;28;20083;-88
2021/06/01 21:42:45;;;;;;;5.15;3.08;;;;;;;;;;5016058;28;20450;-89